sensor_id;sensor_type;location;lat;lon;timestamp;P1;durP1;ratioP1;P2;durP2;ratioP2
37047;SDS011;23227;48.780;9.210;2023-02-28T00:01:38;4.97;;;1.48;;
37047;SDS011;23227;48.780;9.210;2023-02-28T00:04:42;5.10;;;2.20;;
37047;SDS011;23227;48.780;9.210;2023-02-28T00:07:45;2.28;;;1.60;;
37047;SDS011;23227;48.780;9.210;2023-02-28T00:10:48;4.18;;;2.05;;
37047;SDS011;23227;48.780;9.210;2023-02-28T00:13:50;3.95;;;1.90;;
37047;SDS011;23227;48.780;9.210;2023-02-28T00:16:53;4.65;;;2.13;;
37047;SDS011;23227;48.780;9.210;2023-02-28T00:19:57;3.85;;;2.05;;
37047;SDS011;23227;48.780;9.210;2023-02-28T00:23:05;5.00;;;2.10;;
37047;SDS011;23227;48.780;9.210;2023-02-28T00:26:08;3.60;;;1.80;;
37047;SDS011;23227;48.780;9.210;2023-02-28T00:29:11;4.28;;;2.03;;
37047;SDS011;23227;48.780;9.210;2023-02-28T00:32:13;4.18;;;2.00;;
37047;SDS011;23227;48.780;9.210;2023-02-28T00:35:18;3.72;;;2.00;;
37047;SDS011;23227;48.780;9.210;2023-02-28T00:38:20;2.92;;;1.70;;
37047;SDS011;23227;48.780;9.210;2023-02-28T00:41:23;6.40;;;2.85;;
37047;SDS011;23227;48.780;9.210;2023-02-28T00:44:26;4.85;;;2.17;;
37047;SDS011;23227;48.780;9.210;2023-02-28T00:47:28;2.85;;;1.70;;
37047;SDS011;23227;48.780;9.210;2023-02-28T00:50:33;3.97;;;1.92;;
37047;SDS011;23227;48.780;9.210;2023-02-28T00:53:35;4.70;;;2.25;;
37047;SDS011;23227;48.780;9.210;2023-02-28T00:56:38;3.95;;;2.28;;
37047;SDS011;23227;48.780;9.210;2023-02-28T00:59:41;5.28;;;1.92;;
37047;SDS011;23227;48.780;9.210;2023-02-28T01:02:44;3.85;;;1.90;;
37047;SDS011;23227;48.780;9.210;2023-02-28T01:05:48;3.17;;;1.80;;
37047;SDS011;23227;48.780;9.210;2023-02-28T01:11:53;5.78;;;1.85;;
37047;SDS011;23227;48.780;9.210;2023-02-28T01:14:55;3.83;;;1.85;;
37047;SDS011;23227;48.780;9.210;2023-02-28T01:17:59;3.17;;;1.90;;
37047;SDS011;23227;48.780;9.210;2023-02-28T01:21:04;3.80;;;2.50;;
37047;SDS011;23227;48.780;9.210;2023-02-28T01:24:07;5.32;;;2.00;;
37047;SDS011;23227;48.780;9.210;2023-02-28T01:27:10;4.50;;;2.08;;
37047;SDS011;23227;48.780;9.210;2023-02-28T01:30:13;3.40;;;1.90;;
37047;SDS011;23227;48.780;9.210;2023-02-28T01:33:16;4.35;;;2.20;;
37047;SDS011;23227;48.780;9.210;2023-02-28T01:36:20;4.47;;;2.33;;
37047;SDS011;23227;48.780;9.210;2023-02-28T01:39:25;3.15;;;1.80;;
37047;SDS011;23227;48.780;9.210;2023-02-28T01:42:27;3.05;;;2.20;;
37047;SDS011;23227;48.780;9.210;2023-02-28T01:45:31;6.60;;;2.10;;
37047;SDS011;23227;48.780;9.210;2023-02-28T01:48:34;4.85;;;2.30;;
37047;SDS011;23227;48.780;9.210;2023-02-28T01:51:40;4.10;;;1.98;;
37047;SDS011;23227;48.780;9.210;2023-02-28T01:54:49;3.38;;;2.15;;
37047;SDS011;23227;48.780;9.210;2023-02-28T01:57:55;2.67;;;1.92;;
37047;SDS011;23227;48.780;9.210;2023-02-28T02:01:23;5.85;;;2.50;;
37047;SDS011;23227;48.780;9.210;2023-02-28T02:04:32;6.25;;;2.03;;
37047;SDS011;23227;48.780;9.210;2023-02-28T02:07:41;7.10;;;2.70;;
37047;SDS011;23227;48.780;9.210;2023-02-28T02:10:45;6.15;;;2.58;;
37047;SDS011;23227;48.780;9.210;2023-02-28T02:13:54;6.75;;;2.30;;
37047;SDS011;23227;48.780;9.210;2023-02-28T02:17:06;3.85;;;2.40;;
37047;SDS011;23227;48.780;9.210;2023-02-28T02:24:35;6.10;;;2.45;;
37047;SDS011;23227;48.780;9.210;2023-02-28T02:27:59;3.92;;;2.63;;
37047;SDS011;23227;48.780;9.210;2023-02-28T02:31:27;6.53;;;2.42;;
37047;SDS011;23227;48.780;9.210;2023-02-28T02:34:55;6.35;;;2.63;;
37047;SDS011;23227;48.780;9.210;2023-02-28T02:38:03;5.70;;;2.78;;
37047;SDS011;23227;48.780;9.210;2023-02-28T02:41:12;3.55;;;2.30;;
37047;SDS011;23227;48.780;9.210;2023-02-28T02:44:20;9.02;;;2.90;;
37047;SDS011;23227;48.780;9.210;2023-02-28T02:47:25;5.55;;;2.67;;
37047;SDS011;23227;48.780;9.210;2023-02-28T02:50:33;4.70;;;2.58;;
37047;SDS011;23227;48.780;9.210;2023-02-28T02:53:40;4.50;;;2.28;;
37047;SDS011;23227;48.780;9.210;2023-02-28T02:56:45;3.72;;;2.78;;
37047;SDS011;23227;48.780;9.210;2023-02-28T02:59:49;5.75;;;2.80;;
37047;SDS011;23227;48.780;9.210;2023-02-28T03:02:52;4.38;;;2.65;;
37047;SDS011;23227;48.780;9.210;2023-02-28T03:05:58;4.20;;;2.60;;
37047;SDS011;23227;48.780;9.210;2023-02-28T03:09:02;5.77;;;2.53;;
37047;SDS011;23227;48.780;9.210;2023-02-28T03:12:06;3.60;;;2.42;;
37047;SDS011;23227;48.780;9.210;2023-02-28T03:15:13;6.27;;;2.97;;
37047;SDS011;23227;48.780;9.210;2023-02-28T03:18:22;3.85;;;2.63;;
37047;SDS011;23227;48.780;9.210;2023-02-28T03:21:30;4.55;;;3.22;;
37047;SDS011;23227;48.780;9.210;2023-02-28T03:24:38;5.18;;;3.35;;
37047;SDS011;23227;48.780;9.210;2023-02-28T03:27:53;5.40;;;2.80;;
37047;SDS011;23227;48.780;9.210;2023-02-28T03:31:00;6.18;;;3.08;;
37047;SDS011;23227;48.780;9.210;2023-02-28T03:34:06;4.00;;;2.80;;
37047;SDS011;23227;48.780;9.210;2023-02-28T03:37:17;6.72;;;2.70;;
37047;SDS011;23227;48.780;9.210;2023-02-28T03:40:22;5.53;;;3.00;;
37047;SDS011;23227;48.780;9.210;2023-02-28T03:43:28;4.88;;;2.45;;
37047;SDS011;23227;48.780;9.210;2023-02-28T03:46:34;5.75;;;2.83;;
37047;SDS011;23227;48.780;9.210;2023-02-28T03:49:40;4.82;;;3.10;;
37047;SDS011;23227;48.780;9.210;2023-02-28T03:52:49;4.83;;;3.50;;
37047;SDS011;23227;48.780;9.210;2023-02-28T03:55:54;4.03;;;2.87;;
37047;SDS011;23227;48.780;9.210;2023-02-28T03:59:00;5.13;;;3.10;;
37047;SDS011;23227;48.780;9.210;2023-02-28T04:02:07;5.07;;;2.60;;
37047;SDS011;23227;48.780;9.210;2023-02-28T04:05:10;5.03;;;2.97;;
37047;SDS011;23227;48.780;9.210;2023-02-28T04:08:14;4.73;;;2.77;;
37047;SDS011;23227;48.780;9.210;2023-02-28T04:11:18;5.97;;;3.20;;
37047;SDS011;23227;48.780;9.210;2023-02-28T04:14:35;6.23;;;2.70;;
37047;SDS011;23227;48.780;9.210;2023-02-28T04:17:41;5.67;;;3.47;;
37047;SDS011;23227;48.780;9.210;2023-02-28T04:20:53;4.30;;;2.53;;
37047;SDS011;23227;48.780;9.210;2023-02-28T04:23:57;6.53;;;2.73;;
37047;SDS011;23227;48.780;9.210;2023-02-28T04:27:02;5.40;;;3.03;;
37047;SDS011;23227;48.780;9.210;2023-02-28T04:30:05;5.40;;;3.58;;
37047;SDS011;23227;48.780;9.210;2023-02-28T04:33:09;4.63;;;2.97;;
37047;SDS011;23227;48.780;9.210;2023-02-28T04:36:12;6.30;;;3.10;;
37047;SDS011;23227;48.780;9.210;2023-02-28T04:39:17;9.02;;;4.15;;
37047;SDS011;23227;48.780;9.210;2023-02-28T04:42:20;6.43;;;2.87;;
37047;SDS011;23227;48.780;9.210;2023-02-28T04:45:23;5.97;;;3.20;;
37047;SDS011;23227;48.780;9.210;2023-02-28T04:48:27;5.77;;;3.50;;
37047;SDS011;23227;48.780;9.210;2023-02-28T04:51:31;4.90;;;3.23;;
37047;SDS011;23227;48.780;9.210;2023-02-28T04:54:35;9.40;;;3.78;;
37047;SDS011;23227;48.780;9.210;2023-02-28T04:57:39;6.27;;;3.60;;
37047;SDS011;23227;48.780;9.210;2023-02-28T05:00:43;5.83;;;3.33;;
37047;SDS011;23227;48.780;9.210;2023-02-28T05:03:46;4.47;;;2.90;;
37047;SDS011;23227;48.780;9.210;2023-02-28T05:06:49;6.53;;;3.25;;
37047;SDS011;23227;48.780;9.210;2023-02-28T05:09:53;6.30;;;3.90;;
37047;SDS011;23227;48.780;9.210;2023-02-28T05:12:56;7.37;;;3.43;;
37047;SDS011;23227;48.780;9.210;2023-02-28T05:15:58;7.33;;;3.90;;
37047;SDS011;23227;48.780;9.210;2023-02-28T05:19:01;4.03;;;2.60;;
37047;SDS011;23227;48.780;9.210;2023-02-28T05:22:11;3.90;;;3.17;;
37047;SDS011;23227;48.780;9.210;2023-02-28T05:25:18;4.37;;;3.17;;
37047;SDS011;23227;48.780;9.210;2023-02-28T05:28:22;5.73;;;3.40;;
37047;SDS011;23227;48.780;9.210;2023-02-28T05:31:25;13.03;;;3.70;;
37047;SDS011;23227;48.780;9.210;2023-02-28T05:34:28;5.97;;;3.53;;
37047;SDS011;23227;48.780;9.210;2023-02-28T05:37:31;9.27;;;3.67;;
37047;SDS011;23227;48.780;9.210;2023-02-28T05:40:35;7.20;;;3.40;;
37047;SDS011;23227;48.780;9.210;2023-02-28T05:43:40;5.83;;;3.50;;
37047;SDS011;23227;48.780;9.210;2023-02-28T05:46:43;6.63;;;3.00;;
37047;SDS011;23227;48.780;9.210;2023-02-28T05:49:45;8.83;;;3.53;;
37047;SDS011;23227;48.780;9.210;2023-02-28T05:52:49;7.27;;;3.73;;
37047;SDS011;23227;48.780;9.210;2023-02-28T05:55:53;5.57;;;3.30;;
37047;SDS011;23227;48.780;9.210;2023-02-28T05:58:55;6.00;;;3.70;;
37047;SDS011;23227;48.780;9.210;2023-02-28T06:01:58;8.53;;;3.47;;
37047;SDS011;23227;48.780;9.210;2023-02-28T06:05:03;5.47;;;3.30;;
37047;SDS011;23227;48.780;9.210;2023-02-28T06:08:05;9.13;;;4.32;;
37047;SDS011;23227;48.780;9.210;2023-02-28T06:11:10;8.27;;;4.28;;
37047;SDS011;23227;48.780;9.210;2023-02-28T06:14:14;7.20;;;4.10;;
37047;SDS011;23227;48.780;9.210;2023-02-28T06:17:17;7.70;;;4.00;;
37047;SDS011;23227;48.780;9.210;2023-02-28T06:20:20;8.73;;;3.93;;
37047;SDS011;23227;48.780;9.210;2023-02-28T06:23:22;10.37;;;4.00;;
37047;SDS011;23227;48.780;9.210;2023-02-28T06:26:27;7.40;;;4.18;;
37047;SDS011;23227;48.780;9.210;2023-02-28T06:29:30;10.20;;;4.20;;
37047;SDS011;23227;48.780;9.210;2023-02-28T06:32:33;7.78;;;4.10;;
37047;SDS011;23227;48.780;9.210;2023-02-28T06:35:37;9.68;;;4.72;;
37047;SDS011;23227;48.780;9.210;2023-02-28T06:38:39;8.40;;;4.17;;
37047;SDS011;23227;48.780;9.210;2023-02-28T06:41:44;11.80;;;4.53;;
37047;SDS011;23227;48.780;9.210;2023-02-28T06:44:55;7.67;;;3.90;;
37047;SDS011;23227;48.780;9.210;2023-02-28T06:47:58;6.68;;;4.05;;
37047;SDS011;23227;48.780;9.210;2023-02-28T06:51:02;9.88;;;4.18;;
37047;SDS011;23227;48.780;9.210;2023-02-28T06:54:06;8.50;;;3.70;;
37047;SDS011;23227;48.780;9.210;2023-02-28T06:57:11;7.37;;;3.93;;
37047;SDS011;23227;48.780;9.210;2023-02-28T07:00:14;7.13;;;4.10;;
37047;SDS011;23227;48.780;9.210;2023-02-28T07:03:17;8.70;;;4.75;;
37047;SDS011;23227;48.780;9.210;2023-02-28T07:06:21;6.30;;;4.17;;
37047;SDS011;23227;48.780;9.210;2023-02-28T07:09:24;11.73;;;4.50;;
37047;SDS011;23227;48.780;9.210;2023-02-28T07:12:32;9.70;;;4.33;;
37047;SDS011;23227;48.780;9.210;2023-02-28T07:15:34;9.40;;;4.07;;
37047;SDS011;23227;48.780;9.210;2023-02-28T07:18:41;9.60;;;4.43;;
37047;SDS011;23227;48.780;9.210;2023-02-28T07:21:45;15.00;;;4.82;;
37047;SDS011;23227;48.780;9.210;2023-02-28T07:24:47;9.93;;;4.30;;
37047;SDS011;23227;48.780;9.210;2023-02-28T07:27:51;8.50;;;4.20;;
37047;SDS011;23227;48.780;9.210;2023-02-28T07:30:54;9.87;;;5.03;;
37047;SDS011;23227;48.780;9.210;2023-02-28T07:33:57;7.97;;;4.67;;
37047;SDS011;23227;48.780;9.210;2023-02-28T07:36:59;10.70;;;4.83;;
37047;SDS011;23227;48.780;9.210;2023-02-28T07:40:05;13.20;;;4.63;;
37047;SDS011;23227;48.780;9.210;2023-02-28T07:43:11;12.73;;;4.77;;
37047;SDS011;23227;48.780;9.210;2023-02-28T07:46:14;11.63;;;4.93;;
37047;SDS011;23227;48.780;9.210;2023-02-28T07:49:18;9.53;;;4.67;;
37047;SDS011;23227;48.780;9.210;2023-02-28T07:52:21;10.73;;;5.40;;
37047;SDS011;23227;48.780;9.210;2023-02-28T07:55:24;9.27;;;4.70;;
37047;SDS011;23227;48.780;9.210;2023-02-28T07:58:29;9.77;;;5.10;;
37047;SDS011;23227;48.780;9.210;2023-02-28T08:01:32;8.40;;;4.50;;
37047;SDS011;23227;48.780;9.210;2023-02-28T08:04:35;9.83;;;5.00;;
37047;SDS011;23227;48.780;9.210;2023-02-28T08:07:38;14.10;;;4.87;;
37047;SDS011;23227;48.780;9.210;2023-02-28T08:10:40;10.03;;;5.00;;
37047;SDS011;23227;48.780;9.210;2023-02-28T08:13:45;8.87;;;5.17;;
37047;SDS011;23227;48.780;9.210;2023-02-28T08:16:47;9.57;;;4.57;;
37047;SDS011;23227;48.780;9.210;2023-02-28T08:19:50;11.87;;;4.90;;
37047;SDS011;23227;48.780;9.210;2023-02-28T08:22:53;9.07;;;5.10;;
37047;SDS011;23227;48.780;9.210;2023-02-28T08:25:55;8.30;;;4.87;;
37047;SDS011;23227;48.780;9.210;2023-02-28T08:29:00;9.47;;;4.63;;
37047;SDS011;23227;48.780;9.210;2023-02-28T08:32:02;10.70;;;5.13;;
37047;SDS011;23227;48.780;9.210;2023-02-28T08:35:06;11.80;;;5.57;;
37047;SDS011;23227;48.780;9.210;2023-02-28T08:38:10;11.10;;;5.53;;
37047;SDS011;23227;48.780;9.210;2023-02-28T08:41:12;8.90;;;4.97;;
37047;SDS011;23227;48.780;9.210;2023-02-28T08:44:16;11.90;;;4.67;;
37047;SDS011;23227;48.780;9.210;2023-02-28T08:47:19;10.27;;;4.20;;
37047;SDS011;23227;48.780;9.210;2023-02-28T08:50:22;7.53;;;4.00;;
37047;SDS011;23227;48.780;9.210;2023-02-28T08:53:25;11.37;;;4.97;;
37047;SDS011;23227;48.780;9.210;2023-02-28T08:56:28;10.20;;;5.10;;
37047;SDS011;23227;48.780;9.210;2023-02-28T08:59:32;9.50;;;4.63;;
37047;SDS011;23227;48.780;9.210;2023-02-28T09:02:35;9.83;;;4.73;;
37047;SDS011;23227;48.780;9.210;2023-02-28T09:05:38;9.27;;;4.85;;
37047;SDS011;23227;48.780;9.210;2023-02-28T09:08:41;13.07;;;5.13;;
37047;SDS011;23227;48.780;9.210;2023-02-28T09:11:44;8.87;;;5.10;;
37047;SDS011;23227;48.780;9.210;2023-02-28T09:14:47;9.67;;;5.40;;
37047;SDS011;23227;48.780;9.210;2023-02-28T09:17:50;15.00;;;6.23;;
37047;SDS011;23227;48.780;9.210;2023-02-28T09:20:53;9.30;;;4.67;;
37047;SDS011;23227;48.780;9.210;2023-02-28T09:23:55;10.67;;;5.63;;
37047;SDS011;23227;48.780;9.210;2023-02-28T09:26:58;12.63;;;6.33;;
37047;SDS011;23227;48.780;9.210;2023-02-28T09:30:07;9.27;;;5.20;;
37047;SDS011;23227;48.780;9.210;2023-02-28T09:33:12;13.17;;;5.50;;
37047;SDS011;23227;48.780;9.210;2023-02-28T09:36:15;12.47;;;5.87;;
37047;SDS011;23227;48.780;9.210;2023-02-28T09:39:18;15.03;;;5.97;;
37047;SDS011;23227;48.780;9.210;2023-02-28T09:42:21;7.77;;;4.63;;
37047;SDS011;23227;48.780;9.210;2023-02-28T09:45:28;11.43;;;4.67;;
37047;SDS011;23227;48.780;9.210;2023-02-28T09:48:34;13.10;;;5.97;;
37047;SDS011;23227;48.780;9.210;2023-02-28T09:51:44;13.67;;;5.70;;
37047;SDS011;23227;48.780;9.210;2023-02-28T09:54:50;10.63;;;5.37;;
37047;SDS011;23227;48.780;9.210;2023-02-28T09:57:54;11.70;;;5.82;;
37047;SDS011;23227;48.780;9.210;2023-02-28T10:04:03;13.27;;;5.77;;
37047;SDS011;23227;48.780;9.210;2023-02-28T10:07:15;9.07;;;4.70;;
37047;SDS011;23227;48.780;9.210;2023-02-28T10:10:23;11.00;;;5.80;;
37047;SDS011;23227;48.780;9.210;2023-02-28T10:13:32;14.47;;;6.07;;
37047;SDS011;23227;48.780;9.210;2023-02-28T10:16:38;8.67;;;4.90;;
37047;SDS011;23227;48.780;9.210;2023-02-28T10:19:47;13.83;;;5.60;;
37047;SDS011;23227;48.780;9.210;2023-02-28T10:22:58;10.17;;;5.73;;
37047;SDS011;23227;48.780;9.210;2023-02-28T10:26:09;9.17;;;5.23;;
37047;SDS011;23227;48.780;9.210;2023-02-28T10:29:14;9.63;;;5.50;;
37047;SDS011;23227;48.780;9.210;2023-02-28T10:32:20;9.43;;;5.47;;
37047;SDS011;23227;48.780;9.210;2023-02-28T10:35:24;11.83;;;5.40;;
37047;SDS011;23227;48.780;9.210;2023-02-28T10:41:31;11.93;;;5.82;;
37047;SDS011;23227;48.780;9.210;2023-02-28T10:44:36;11.50;;;5.43;;
37047;SDS011;23227;48.780;9.210;2023-02-28T10:47:42;9.80;;;5.77;;
37047;SDS011;23227;48.780;9.210;2023-02-28T10:50:55;11.43;;;6.07;;
37047;SDS011;23227;48.780;9.210;2023-02-28T10:53:59;13.33;;;5.97;;
37047;SDS011;23227;48.780;9.210;2023-02-28T11:00:13;11.57;;;6.33;;
37047;SDS011;23227;48.780;9.210;2023-02-28T11:03:24;11.07;;;6.10;;
37047;SDS011;23227;48.780;9.210;2023-02-28T11:06:31;11.17;;;5.63;;
37047;SDS011;23227;48.780;9.210;2023-02-28T11:09:35;10.77;;;6.10;;
37047;SDS011;23227;48.780;9.210;2023-02-28T11:12:40;11.63;;;6.20;;
37047;SDS011;23227;48.780;9.210;2023-02-28T11:15:54;12.20;;;5.80;;
37047;SDS011;23227;48.780;9.210;2023-02-28T11:18:58;12.70;;;5.90;;
37047;SDS011;23227;48.780;9.210;2023-02-28T11:22:01;9.23;;;5.30;;
37047;SDS011;23227;48.780;9.210;2023-02-28T11:25:06;9.90;;;5.60;;
37047;SDS011;23227;48.780;9.210;2023-02-28T11:28:22;11.77;;;6.47;;
37047;SDS011;23227;48.780;9.210;2023-02-28T11:31:27;9.20;;;5.40;;
37047;SDS011;23227;48.780;9.210;2023-02-28T11:34:33;11.60;;;5.87;;
37047;SDS011;23227;48.780;9.210;2023-02-28T11:40:39;11.73;;;5.63;;
37047;SDS011;23227;48.780;9.210;2023-02-28T11:43:51;9.30;;;5.97;;
37047;SDS011;23227;48.780;9.210;2023-02-28T11:47:04;10.70;;;5.57;;
37047;SDS011;23227;48.780;9.210;2023-02-28T11:50:19;12.63;;;6.27;;
37047;SDS011;23227;48.780;9.210;2023-02-28T11:53:31;15.60;;;6.13;;
37047;SDS011;23227;48.780;9.210;2023-02-28T11:56:43;11.43;;;6.17;;
37047;SDS011;23227;48.780;9.210;2023-02-28T11:59:49;11.53;;;5.13;;
37047;SDS011;23227;48.780;9.210;2023-02-28T12:02:59;12.40;;;5.73;;
37047;SDS011;23227;48.780;9.210;2023-02-28T12:06:13;11.73;;;6.40;;
37047;SDS011;23227;48.780;9.210;2023-02-28T12:09:23;12.13;;;6.07;;
37047;SDS011;23227;48.780;9.210;2023-02-28T12:15:49;9.60;;;5.10;;
37047;SDS011;23227;48.780;9.210;2023-02-28T12:19:07;11.30;;;5.77;;
37047;SDS011;23227;48.780;9.210;2023-02-28T12:22:29;7.53;;;5.07;;
37047;SDS011;23227;48.780;9.210;2023-02-28T12:25:42;10.27;;;5.63;;
37047;SDS011;23227;48.780;9.210;2023-02-28T12:28:51;8.93;;;5.53;;
37047;SDS011;23227;48.780;9.210;2023-02-28T12:31:56;9.93;;;5.70;;
37047;SDS011;23227;48.780;9.210;2023-02-28T12:35:02;7.80;;;4.97;;
37047;SDS011;23227;48.780;9.210;2023-02-28T12:38:10;14.97;;;5.30;;
37047;SDS011;23227;48.780;9.210;2023-02-28T12:41:19;10.40;;;6.13;;
37047;SDS011;23227;48.780;9.210;2023-02-28T12:44:26;9.40;;;5.67;;
37047;SDS011;23227;48.780;9.210;2023-02-28T12:47:32;9.20;;;5.03;;
37047;SDS011;23227;48.780;9.210;2023-02-28T12:50:35;8.93;;;5.80;;
37047;SDS011;23227;48.780;9.210;2023-02-28T12:53:43;11.37;;;6.17;;
37047;SDS011;23227;48.780;9.210;2023-02-28T12:56:54;9.50;;;5.20;;
37047;SDS011;23227;48.780;9.210;2023-02-28T13:00:03;8.77;;;4.87;;
37047;SDS011;23227;48.780;9.210;2023-02-28T13:06:53;10.50;;;5.67;;
37047;SDS011;23227;48.780;9.210;2023-02-28T13:10:04;9.55;;;5.88;;
37047;SDS011;23227;48.780;9.210;2023-02-28T13:13:13;8.50;;;5.50;;
37047;SDS011;23227;48.780;9.210;2023-02-28T13:16:17;9.67;;;6.10;;
37047;SDS011;23227;48.780;9.210;2023-02-28T13:19:20;9.13;;;4.50;;
37047;SDS011;23227;48.780;9.210;2023-02-28T13:22:39;7.53;;;4.70;;
37047;SDS011;23227;48.780;9.210;2023-02-28T13:25:50;10.43;;;5.07;;
37047;SDS011;23227;48.780;9.210;2023-02-28T13:28:58;6.53;;;4.33;;
37047;SDS011;23227;48.780;9.210;2023-02-28T13:35:44;9.23;;;5.17;;
37047;SDS011;23227;48.780;9.210;2023-02-28T13:38:48;10.27;;;6.03;;
37047;SDS011;23227;48.780;9.210;2023-02-28T13:41:54;13.23;;;5.43;;
37047;SDS011;23227;48.780;9.210;2023-02-28T13:48:25;7.60;;;5.10;;
37047;SDS011;23227;48.780;9.210;2023-02-28T13:51:40;6.83;;;4.80;;
37047;SDS011;23227;48.780;9.210;2023-02-28T13:54:50;8.47;;;5.00;;
37047;SDS011;23227;48.780;9.210;2023-02-28T13:58:10;14.83;;;5.93;;
37047;SDS011;23227;48.780;9.210;2023-02-28T14:01:26;8.32;;;5.45;;
37047;SDS011;23227;48.780;9.210;2023-02-28T14:04:39;7.63;;;5.10;;
37047;SDS011;23227;48.780;9.210;2023-02-28T14:07:50;8.47;;;5.27;;
37047;SDS011;23227;48.780;9.210;2023-02-28T14:11:02;6.90;;;4.80;;
37047;SDS011;23227;48.780;9.210;2023-02-28T14:14:08;8.73;;;4.63;;
37047;SDS011;23227;48.780;9.210;2023-02-28T14:17:12;9.70;;;6.13;;
37047;SDS011;23227;48.780;9.210;2023-02-28T14:20:17;8.83;;;5.40;;
37047;SDS011;23227;48.780;9.210;2023-02-28T14:23:25;8.63;;;5.57;;
37047;SDS011;23227;48.780;9.210;2023-02-28T14:26:42;6.70;;;4.50;;
37047;SDS011;23227;48.780;9.210;2023-02-28T14:33:59;7.20;;;5.10;;
37047;SDS011;23227;48.780;9.210;2023-02-28T14:37:09;8.63;;;5.10;;
37047;SDS011;23227;48.780;9.210;2023-02-28T14:40:16;11.13;;;5.73;;
37047;SDS011;23227;48.780;9.210;2023-02-28T14:43:20;9.00;;;5.83;;
37047;SDS011;23227;48.780;9.210;2023-02-28T14:46:26;9.63;;;5.13;;
37047;SDS011;23227;48.780;9.210;2023-02-28T14:49:34;8.37;;;5.60;;
37047;SDS011;23227;48.780;9.210;2023-02-28T14:52:38;8.93;;;4.87;;
37047;SDS011;23227;48.780;9.210;2023-02-28T14:55:44;8.03;;;4.90;;
37047;SDS011;23227;48.780;9.210;2023-02-28T14:58:50;7.60;;;5.30;;
37047;SDS011;23227;48.780;9.210;2023-02-28T15:05:21;10.67;;;5.20;;
37047;SDS011;23227;48.780;9.210;2023-02-28T15:08:26;8.07;;;5.90;;
37047;SDS011;23227;48.780;9.210;2023-02-28T15:11:32;9.30;;;5.60;;
37047;SDS011;23227;48.780;9.210;2023-02-28T15:14:35;11.30;;;5.53;;
37047;SDS011;23227;48.780;9.210;2023-02-28T15:17:39;8.70;;;5.03;;
37047;SDS011;23227;48.780;9.210;2023-02-28T15:20:43;8.55;;;5.32;;
37047;SDS011;23227;48.780;9.210;2023-02-28T15:23:48;11.27;;;5.30;;
37047;SDS011;23227;48.780;9.210;2023-02-28T15:26:53;7.40;;;4.80;;
37047;SDS011;23227;48.780;9.210;2023-02-28T15:29:58;9.10;;;5.47;;
37047;SDS011;23227;48.780;9.210;2023-02-28T15:33:03;7.33;;;5.23;;
37047;SDS011;23227;48.780;9.210;2023-02-28T15:36:14;15.13;;;5.80;;
37047;SDS011;23227;48.780;9.210;2023-02-28T15:39:19;8.87;;;5.40;;
37047;SDS011;23227;48.780;9.210;2023-02-28T15:42:23;12.73;;;5.53;;
37047;SDS011;23227;48.780;9.210;2023-02-28T15:45:34;10.50;;;5.80;;
37047;SDS011;23227;48.780;9.210;2023-02-28T15:48:42;10.47;;;5.70;;
37047;SDS011;23227;48.780;9.210;2023-02-28T15:51:48;9.47;;;5.17;;
37047;SDS011;23227;48.780;9.210;2023-02-28T15:54:52;8.53;;;5.37;;
37047;SDS011;23227;48.780;9.210;2023-02-28T15:57:55;9.37;;;5.97;;
37047;SDS011;23227;48.780;9.210;2023-02-28T16:01:08;7.63;;;5.00;;
37047;SDS011;23227;48.780;9.210;2023-02-28T16:04:19;9.63;;;5.47;;
37047;SDS011;23227;48.780;9.210;2023-02-28T16:10:27;6.38;;;4.72;;
37047;SDS011;23227;48.780;9.210;2023-02-28T16:13:30;12.53;;;5.93;;
37047;SDS011;23227;48.780;9.210;2023-02-28T16:16:33;10.83;;;5.93;;
37047;SDS011;23227;48.780;9.210;2023-02-28T16:19:36;14.10;;;5.68;;
37047;SDS011;23227;48.780;9.210;2023-02-28T16:22:40;8.52;;;5.65;;
37047;SDS011;23227;48.780;9.210;2023-02-28T16:25:44;9.57;;;6.00;;
37047;SDS011;23227;48.780;9.210;2023-02-28T16:28:48;11.17;;;6.50;;
37047;SDS011;23227;48.780;9.210;2023-02-28T16:31:51;9.10;;;5.85;;
37047;SDS011;23227;48.780;9.210;2023-02-28T16:34:54;11.07;;;5.93;;
37047;SDS011;23227;48.780;9.210;2023-02-28T16:37:58;13.00;;;6.33;;
37047;SDS011;23227;48.780;9.210;2023-02-28T16:41:01;12.20;;;7.17;;
37047;SDS011;23227;48.780;9.210;2023-02-28T16:44:03;12.13;;;6.53;;
37047;SDS011;23227;48.780;9.210;2023-02-28T16:47:12;17.73;;;7.90;;
37047;SDS011;23227;48.780;9.210;2023-02-28T16:50:16;10.57;;;6.47;;
37047;SDS011;23227;48.780;9.210;2023-02-28T16:53:22;10.43;;;6.90;;
37047;SDS011;23227;48.780;9.210;2023-02-28T16:56:24;12.07;;;6.77;;
37047;SDS011;23227;48.780;9.210;2023-02-28T16:59:27;12.07;;;6.95;;
37047;SDS011;23227;48.780;9.210;2023-02-28T17:02:30;15.77;;;6.57;;
37047;SDS011;23227;48.780;9.210;2023-02-28T17:05:35;15.52;;;7.45;;
37047;SDS011;23227;48.780;9.210;2023-02-28T17:08:42;15.83;;;6.10;;
37047;SDS011;23227;48.780;9.210;2023-02-28T17:11:44;10.73;;;6.47;;
37047;SDS011;23227;48.780;9.210;2023-02-28T17:14:48;12.27;;;6.80;;
37047;SDS011;23227;48.780;9.210;2023-02-28T17:17:51;11.95;;;6.80;;
37047;SDS011;23227;48.780;9.210;2023-02-28T17:20:54;14.15;;;6.88;;
37047;SDS011;23227;48.780;9.210;2023-02-28T17:23:58;13.83;;;6.77;;
37047;SDS011;23227;48.780;9.210;2023-02-28T17:27:01;14.37;;;6.30;;
37047;SDS011;23227;48.780;9.210;2023-02-28T17:30:09;13.23;;;6.35;;
37047;SDS011;23227;48.780;9.210;2023-02-28T17:33:16;13.40;;;6.37;;
37047;SDS011;23227;48.780;9.210;2023-02-28T17:36:20;10.70;;;6.00;;
37047;SDS011;23227;48.780;9.210;2023-02-28T17:39:26;10.97;;;6.70;;
37047;SDS011;23227;48.780;9.210;2023-02-28T17:45:32;15.13;;;6.37;;
37047;SDS011;23227;48.780;9.210;2023-02-28T17:48:45;11.85;;;6.22;;
37047;SDS011;23227;48.780;9.210;2023-02-28T17:51:48;11.18;;;6.35;;
37047;SDS011;23227;48.780;9.210;2023-02-28T17:54:53;20.40;;;7.23;;
37047;SDS011;23227;48.780;9.210;2023-02-28T17:57:56;15.83;;;7.33;;
37047;SDS011;23227;48.780;9.210;2023-02-28T18:00:59;13.17;;;6.63;;
37047;SDS011;23227;48.780;9.210;2023-02-28T18:04:02;11.90;;;7.17;;
37047;SDS011;23227;48.780;9.210;2023-02-28T18:07:05;15.75;;;7.57;;
37047;SDS011;23227;48.780;9.210;2023-02-28T18:10:11;16.50;;;7.95;;
37047;SDS011;23227;48.780;9.210;2023-02-28T18:13:17;18.20;;;9.03;;
37047;SDS011;23227;48.780;9.210;2023-02-28T18:16:20;16.73;;;8.13;;
37047;SDS011;23227;48.780;9.210;2023-02-28T18:19:23;15.75;;;7.22;;
37047;SDS011;23227;48.780;9.210;2023-02-28T18:22:26;15.43;;;7.77;;
37047;SDS011;23227;48.780;9.210;2023-02-28T18:25:30;22.80;;;8.37;;
37047;SDS011;23227;48.780;9.210;2023-02-28T18:28:33;15.00;;;7.93;;
37047;SDS011;23227;48.780;9.210;2023-02-28T18:31:37;16.95;;;8.18;;
37047;SDS011;23227;48.780;9.210;2023-02-28T18:34:40;15.53;;;7.83;;
37047;SDS011;23227;48.780;9.210;2023-02-28T18:37:42;19.23;;;9.37;;
37047;SDS011;23227;48.780;9.210;2023-02-28T18:40:51;26.13;;;11.70;;
37047;SDS011;23227;48.780;9.210;2023-02-28T18:43:55;26.37;;;10.40;;
37047;SDS011;23227;48.780;9.210;2023-02-28T18:50:01;23.43;;;10.23;;
37047;SDS011;23227;48.780;9.210;2023-02-28T18:53:06;22.37;;;10.77;;
37047;SDS011;23227;48.780;9.210;2023-02-28T18:56:11;22.97;;;10.93;;
37047;SDS011;23227;48.780;9.210;2023-02-28T18:59:15;22.00;;;10.30;;
37047;SDS011;23227;48.780;9.210;2023-02-28T19:02:18;20.83;;;10.47;;
37047;SDS011;23227;48.780;9.210;2023-02-28T19:05:21;29.10;;;13.03;;
37047;SDS011;23227;48.780;9.210;2023-02-28T19:08:24;34.25;;;13.95;;
37047;SDS011;23227;48.780;9.210;2023-02-28T19:11:28;30.77;;;14.10;;
37047;SDS011;23227;48.780;9.210;2023-02-28T19:14:31;28.80;;;14.33;;
37047;SDS011;23227;48.780;9.210;2023-02-28T19:17:43;32.03;;;14.13;;
37047;SDS011;23227;48.780;9.210;2023-02-28T19:20:47;27.47;;;14.20;;
37047;SDS011;23227;48.780;9.210;2023-02-28T19:23:51;28.70;;;13.97;;